sensor_id;sensor_type;location;lat;lon;timestamp;pressure;altitude;pressure_sealevel;temperature;humidity
63715;BME280;49858;48.956;9.076;2023-01-28T00:00:50;99370.56;;;3.04;100.00
63715;BME280;49858;48.956;9.076;2023-01-28T00:03:18;99361.03;;;3.06;100.00
63715;BME280;49858;48.956;9.076;2023-01-28T00:05:46;99364.22;;;3.32;100.00
63715;BME280;49858;48.956;9.076;2023-01-28T00:08:14;99358.66;;;2.76;100.00
63715;BME280;49858;48.956;9.076;2023-01-28T00:10:43;99366.50;;;2.24;100.00
63715;BME280;49858;48.956;9.076;2023-01-28T00:13:12;99368.47;;;2.96;100.00
63715;BME280;49858;48.956;9.076;2023-01-28T00:15:41;99367.59;;;3.00;100.00
63715;BME280;49858;48.956;9.076;2023-01-28T00:18:08;99370.88;;;2.78;100.00
63715;BME280;49858;48.956;9.076;2023-01-28T00:20:36;99366.78;;;2.52;100.00
63715;BME280;49858;48.956;9.076;2023-01-28T00:23:04;99369.41;;;2.86;100.00
63715;BME280;49858;48.956;9.076;2023-01-28T00:25:32;99369.31;;;3.15;100.00
63715;BME280;49858;48.956;9.076;2023-01-28T00:28:01;99367.28;;;3.07;100.00
63715;BME280;49858;48.956;9.076;2023-01-28T00:30:29;99359.31;;;3.35;100.00
63715;BME280;49858;48.956;9.076;2023-01-28T00:32:56;99356.34;;;2.88;100.00
63715;BME280;49858;48.956;9.076;2023-01-28T00:35:24;99361.97;;;2.97;100.00
63715;BME280;49858;48.956;9.076;2023-01-28T00:37:52;99359.47;;;2.76;100.00
63715;BME280;49858;48.956;9.076;2023-01-28T00:40:20;99354.50;;;3.07;100.00
63715;BME280;49858;48.956;9.076;2023-01-28T00:42:48;99360.06;;;2.44;100.00
63715;BME280;49858;48.956;9.076;2023-01-28T00:45:17;99364.25;;;2.61;100.00
63715;BME280;49858;48.956;9.076;2023-01-28T00:47:45;99364.03;;;2.81;100.00
63715;BME280;49858;48.956;9.076;2023-01-28T00:50:14;99358.59;;;3.05;100.00
63715;BME280;49858;48.956;9.076;2023-01-28T00:52:42;99362.34;;;3.09;100.00
63715;BME280;49858;48.956;9.076;2023-01-28T00:55:10;99366.28;;;3.41;100.00
63715;BME280;49858;48.956;9.076;2023-01-28T00:57:40;99359.91;;;3.50;100.00
63715;BME280;49858;48.956;9.076;2023-01-28T01:00:09;99357.03;;;3.42;100.00
63715;BME280;49858;48.956;9.076;2023-01-28T01:02:38;99349.75;;;3.75;100.00
63715;BME280;49858;48.956;9.076;2023-01-28T01:05:08;99354.47;;;3.88;100.00
63715;BME280;49858;48.956;9.076;2023-01-28T01:07:35;99357.16;;;4.07;100.00
63715;BME280;49858;48.956;9.076;2023-01-28T01:10:09;99351.44;;;3.52;100.00
63715;BME280;49858;48.956;9.076;2023-01-28T01:12:38;99351.09;;;3.58;100.00
63715;BME280;49858;48.956;9.076;2023-01-28T01:15:08;99355.19;;;3.75;100.00
63715;BME280;49858;48.956;9.076;2023-01-28T01:17:39;99353.59;;;3.55;100.00
63715;BME280;49858;48.956;9.076;2023-01-28T01:20:12;99361.19;;;3.58;100.00
63715;BME280;49858;48.956;9.076;2023-01-28T01:22:40;99363.25;;;3.23;100.00
63715;BME280;49858;48.956;9.076;2023-01-28T01:25:09;99368.66;;;3.47;100.00
63715;BME280;49858;48.956;9.076;2023-01-28T01:27:36;99371.22;;;3.57;100.00
63715;BME280;49858;48.956;9.076;2023-01-28T01:30:06;99367.63;;;2.76;100.00
63715;BME280;49858;48.956;9.076;2023-01-28T01:32:34;99365.25;;;2.94;100.00
63715;BME280;49858;48.956;9.076;2023-01-28T01:35:05;99365.75;;;2.96;100.00
63715;BME280;49858;48.956;9.076;2023-01-28T01:37:34;99369.97;;;3.31;100.00
63715;BME280;49858;48.956;9.076;2023-01-28T01:40:03;99365.75;;;3.20;100.00
63715;BME280;49858;48.956;9.076;2023-01-28T01:42:32;99375.78;;;3.43;100.00
63715;BME280;49858;48.956;9.076;2023-01-28T01:45:01;99373.91;;;3.39;100.00
63715;BME280;49858;48.956;9.076;2023-01-28T01:47:39;99371.19;;;3.39;100.00
63715;BME280;49858;48.956;9.076;2023-01-28T01:50:15;99378.09;;;3.12;100.00
63715;BME280;49858;48.956;9.076;2023-01-28T01:52:47;99369.44;;;3.29;100.00
63715;BME280;49858;48.956;9.076;2023-01-28T01:55:19;99370.78;;;3.31;100.00
63715;BME280;49858;48.956;9.076;2023-01-28T01:57:48;99375.00;;;3.19;100.00
63715;BME280;49858;48.956;9.076;2023-01-28T02:00:18;99363.09;;;3.15;100.00
63715;BME280;49858;48.956;9.076;2023-01-28T02:02:48;99366.22;;;3.03;100.00
63715;BME280;49858;48.956;9.076;2023-01-28T02:05:20;99363.72;;;3.30;100.00
63715;BME280;49858;48.956;9.076;2023-01-28T02:07:51;99374.22;;;2.94;100.00
63715;BME280;49858;48.956;9.076;2023-01-28T02:10:21;99365.50;;;2.97;100.00
63715;BME280;49858;48.956;9.076;2023-01-28T02:12:54;99371.47;;;3.18;100.00
63715;BME280;49858;48.956;9.076;2023-01-28T02:15:25;99370.00;;;3.07;100.00
63715;BME280;49858;48.956;9.076;2023-01-28T02:17:55;99368.75;;;3.18;100.00
63715;BME280;49858;48.956;9.076;2023-01-28T02:20:37;99371.25;;;2.91;100.00
63715;BME280;49858;48.956;9.076;2023-01-28T02:23:22;99374.31;;;2.60;100.00
63715;BME280;49858;48.956;9.076;2023-01-28T02:26:19;99373.63;;;2.49;100.00
63715;BME280;49858;48.956;9.076;2023-01-28T02:28:57;99376.06;;;2.75;100.00
63715;BME280;49858;48.956;9.076;2023-01-28T02:31:33;99375.38;;;2.64;100.00
63715;BME280;49858;48.956;9.076;2023-01-28T02:34:12;99373.59;;;2.78;100.00
63715;BME280;49858;48.956;9.076;2023-01-28T02:36:46;99376.97;;;2.65;100.00
63715;BME280;49858;48.956;9.076;2023-01-28T02:39:17;99375.69;;;2.81;100.00
63715;BME280;49858;48.956;9.076;2023-01-28T02:41:50;99377.44;;;3.20;100.00
63715;BME280;49858;48.956;9.076;2023-01-28T02:44:21;99374.19;;;2.70;100.00
63715;BME280;49858;48.956;9.076;2023-01-28T02:46:51;99382.78;;;2.83;100.00
63715;BME280;49858;48.956;9.076;2023-01-28T02:49:40;99385.44;;;2.88;100.00
63715;BME280;49858;48.956;9.076;2023-01-28T02:52:19;99390.88;;;2.88;100.00
63715;BME280;49858;48.956;9.076;2023-01-28T02:55:17;99396.25;;;2.93;100.00
63715;BME280;49858;48.956;9.076;2023-01-28T02:57:57;99391.50;;;3.03;100.00
63715;BME280;49858;48.956;9.076;2023-01-28T03:00:33;99391.31;;;3.19;100.00
63715;BME280;49858;48.956;9.076;2023-01-28T03:03:14;99382.38;;;3.37;100.00
63715;BME280;49858;48.956;9.076;2023-01-28T03:05:46;99387.28;;;2.92;100.00
63715;BME280;49858;48.956;9.076;2023-01-28T03:08:33;99383.59;;;3.07;100.00
63715;BME280;49858;48.956;9.076;2023-01-28T03:11:20;99387.09;;;3.07;100.00
63715;BME280;49858;48.956;9.076;2023-01-28T03:14:08;99398.09;;;2.97;100.00
63715;BME280;49858;48.956;9.076;2023-01-28T03:16:56;99392.66;;;2.97;100.00
63715;BME280;49858;48.956;9.076;2023-01-28T03:19:44;99391.75;;;3.07;100.00
63715;BME280;49858;48.956;9.076;2023-01-28T03:22:31;99393.41;;;3.03;100.00
63715;BME280;49858;48.956;9.076;2023-01-28T03:25:19;99388.13;;;3.36;100.00
63715;BME280;49858;48.956;9.076;2023-01-28T03:28:08;99385.59;;;3.20;100.00
63715;BME280;49858;48.956;9.076;2023-01-28T03:31:03;99394.88;;;3.38;100.00
63715;BME280;49858;48.956;9.076;2023-01-28T03:33:56;99394.97;;;3.71;100.00
63715;BME280;49858;48.956;9.076;2023-01-28T03:36:43;99400.06;;;3.77;100.00
63715;BME280;49858;48.956;9.076;2023-01-28T03:39:36;99395.06;;;3.66;100.00
63715;BME280;49858;48.956;9.076;2023-01-28T03:42:09;99395.59;;;3.68;100.00
63715;BME280;49858;48.956;9.076;2023-01-28T03:45:07;99402.06;;;3.29;100.00
63715;BME280;49858;48.956;9.076;2023-01-28T03:47:37;99397.34;;;3.58;100.00
63715;BME280;49858;48.956;9.076;2023-01-28T03:50:10;99398.44;;;3.95;100.00
63715;BME280;49858;48.956;9.076;2023-01-28T03:52:48;99405.66;;;3.67;100.00
63715;BME280;49858;48.956;9.076;2023-01-28T03:55:23;99402.09;;;3.67;100.00
63715;BME280;49858;48.956;9.076;2023-01-28T03:57:52;99402.72;;;3.64;100.00
63715;BME280;49858;48.956;9.076;2023-01-28T04:00:20;99403.91;;;3.95;100.00
63715;BME280;49858;48.956;9.076;2023-01-28T04:02:48;99399.22;;;4.33;100.00
63715;BME280;49858;48.956;9.076;2023-01-28T04:05:20;99410.25;;;4.23;100.00
63715;BME280;49858;48.956;9.076;2023-01-28T04:07:48;99406.97;;;3.70;100.00
63715;BME280;49858;48.956;9.076;2023-01-28T04:10:26;99400.47;;;4.03;100.00
63715;BME280;49858;48.956;9.076;2023-01-28T04:13:00;99413.44;;;3.74;100.00
63715;BME280;49858;48.956;9.076;2023-01-28T04:15:29;99405.94;;;4.03;100.00
63715;BME280;49858;48.956;9.076;2023-01-28T04:17:57;99415.00;;;3.37;100.00
63715;BME280;49858;48.956;9.076;2023-01-28T04:20:30;99419.94;;;3.78;100.00
63715;BME280;49858;48.956;9.076;2023-01-28T04:23:00;99408.97;;;4.02;100.00
63715;BME280;49858;48.956;9.076;2023-01-28T04:25:28;99412.13;;;3.28;100.00
63715;BME280;49858;48.956;9.076;2023-01-28T04:27:56;99426.31;;;2.72;100.00
63715;BME280;49858;48.956;9.076;2023-01-28T04:30:27;99421.97;;;3.00;100.00
63715;BME280;49858;48.956;9.076;2023-01-28T04:33:25;99425.47;;;3.06;100.00
63715;BME280;49858;48.956;9.076;2023-01-28T04:35:59;99433.63;;;3.06;100.00
63715;BME280;49858;48.956;9.076;2023-01-28T04:38:39;99428.56;;;2.94;100.00
63715;BME280;49858;48.956;9.076;2023-01-28T04:41:20;99431.69;;;3.06;100.00
63715;BME280;49858;48.956;9.076;2023-01-28T04:43:49;99426.97;;;2.64;100.00
63715;BME280;49858;48.956;9.076;2023-01-28T04:46:35;99431.81;;;3.20;100.00
63715;BME280;49858;48.956;9.076;2023-01-28T04:49:11;99435.75;;;3.09;100.00
63715;BME280;49858;48.956;9.076;2023-01-28T04:52:07;99442.66;;;2.96;100.00
63715;BME280;49858;48.956;9.076;2023-01-28T04:54:55;99432.03;;;3.00;100.00
63715;BME280;49858;48.956;9.076;2023-01-28T04:57:23;99426.59;;;3.00;100.00
63715;BME280;49858;48.956;9.076;2023-01-28T04:59:51;99425.00;;;2.41;100.00
63715;BME280;49858;48.956;9.076;2023-01-28T05:02:19;99440.19;;;3.00;100.00
63715;BME280;49858;48.956;9.076;2023-01-28T05:04:47;99443.03;;;3.38;100.00
63715;BME280;49858;48.956;9.076;2023-01-28T05:07:35;99441.97;;;3.33;100.00
63715;BME280;49858;48.956;9.076;2023-01-28T05:10:04;99438.31;;;3.43;100.00
63715;BME280;49858;48.956;9.076;2023-01-28T05:12:32;99440.19;;;3.67;100.00
63715;BME280;49858;48.956;9.076;2023-01-28T05:15:04;99440.28;;;3.38;100.00
63715;BME280;49858;48.956;9.076;2023-01-28T05:17:34;99438.97;;;3.59;100.00
63715;BME280;49858;48.956;9.076;2023-01-28T05:20:02;99443.69;;;2.76;100.00
63715;BME280;49858;48.956;9.076;2023-01-28T05:22:32;99444.69;;;3.33;100.00
63715;BME280;49858;48.956;9.076;2023-01-28T05:25:31;99445.13;;;2.98;100.00
63715;BME280;49858;48.956;9.076;2023-01-28T05:27:59;99452.97;;;3.23;100.00
63715;BME280;49858;48.956;9.076;2023-01-28T05:30:27;99454.00;;;3.51;100.00
63715;BME280;49858;48.956;9.076;2023-01-28T05:32:56;99445.56;;;3.53;100.00
63715;BME280;49858;48.956;9.076;2023-01-28T05:35:24;99454.13;;;3.17;100.00
63715;BME280;49858;48.956;9.076;2023-01-28T05:37:52;99460.75;;;3.35;100.00
63715;BME280;49858;48.956;9.076;2023-01-28T05:40:20;99464.78;;;3.38;100.00
63715;BME280;49858;48.956;9.076;2023-01-28T05:42:51;99458.41;;;2.70;100.00
63715;BME280;49858;48.956;9.076;2023-01-28T05:45:31;99457.22;;;3.35;100.00
63715;BME280;49858;48.956;9.076;2023-01-28T05:48:06;99459.31;;;3.62;100.00
63715;BME280;49858;48.956;9.076;2023-01-28T05:50:49;99461.38;;;3.70;100.00
63715;BME280;49858;48.956;9.076;2023-01-28T05:53:19;99453.53;;;3.87;100.00
63715;BME280;49858;48.956;9.076;2023-01-28T05:55:49;99451.41;;;4.03;100.00
63715;BME280;49858;48.956;9.076;2023-01-28T05:58:20;99460.59;;;3.88;100.00
63715;BME280;49858;48.956;9.076;2023-01-28T06:00:48;99464.69;;;3.85;100.00
63715;BME280;49858;48.956;9.076;2023-01-28T06:03:21;99464.94;;;4.08;100.00
63715;BME280;49858;48.956;9.076;2023-01-28T06:05:50;99465.34;;;3.58;100.00
63715;BME280;49858;48.956;9.076;2023-01-28T06:08:18;99478.09;;;3.82;100.00
63715;BME280;49858;48.956;9.076;2023-01-28T06:10:46;99476.25;;;3.77;100.00
63715;BME280;49858;48.956;9.076;2023-01-28T06:13:14;99476.63;;;4.27;100.00
63715;BME280;49858;48.956;9.076;2023-01-28T06:16:02;99485.91;;;3.89;100.00
63715;BME280;49858;48.956;9.076;2023-01-28T06:18:58;99499.28;;;4.04;100.00
63715;BME280;49858;48.956;9.076;2023-01-28T06:21:26;99492.00;;;3.99;100.00
63715;BME280;49858;48.956;9.076;2023-01-28T06:23:56;99499.88;;;3.10;100.00
63715;BME280;49858;48.956;9.076;2023-01-28T06:26:24;99501.78;;;3.57;100.00
63715;BME280;49858;48.956;9.076;2023-01-28T06:28:52;99504.38;;;3.92;100.00
63715;BME280;49858;48.956;9.076;2023-01-28T06:31:21;99507.66;;;3.22;100.00
63715;BME280;49858;48.956;9.076;2023-01-28T06:33:49;99504.31;;;3.97;100.00
63715;BME280;49858;48.956;9.076;2023-01-28T06:36:17;99508.16;;;3.48;100.00
63715;BME280;49858;48.956;9.076;2023-01-28T06:38:45;99511.06;;;3.32;100.00
63715;BME280;49858;48.956;9.076;2023-01-28T06:41:13;99519.38;;;3.17;100.00
63715;BME280;49858;48.956;9.076;2023-01-28T06:43:41;99522.34;;;3.69;100.00
63715;BME280;49858;48.956;9.076;2023-01-28T06:46:08;99525.31;;;3.72;100.00
63715;BME280;49858;48.956;9.076;2023-01-28T06:48:38;99527.88;;;3.40;100.00
63715;BME280;49858;48.956;9.076;2023-01-28T06:51:05;99518.16;;;3.76;100.00
63715;BME280;49858;48.956;9.076;2023-01-28T06:53:34;99532.41;;;3.92;100.00
63715;BME280;49858;48.956;9.076;2023-01-28T06:56:02;99535.84;;;3.79;100.00
63715;BME280;49858;48.956;9.076;2023-01-28T06:58:30;99528.84;;;3.73;100.00
63715;BME280;49858;48.956;9.076;2023-01-28T07:00:58;99530.16;;;3.27;100.00
63715;BME280;49858;48.956;9.076;2023-01-28T07:03:26;99531.56;;;3.49;100.00
63715;BME280;49858;48.956;9.076;2023-01-28T07:05:55;99533.06;;;2.39;100.00
63715;BME280;49858;48.956;9.076;2023-01-28T07:08:23;99536.31;;;3.09;100.00
63715;BME280;49858;48.956;9.076;2023-01-28T07:10:51;99539.22;;;2.89;100.00
63715;BME280;49858;48.956;9.076;2023-01-28T07:13:19;99534.88;;;2.88;100.00
63715;BME280;49858;48.956;9.076;2023-01-28T07:15:47;99537.47;;;3.03;100.00
63715;BME280;49858;48.956;9.076;2023-01-28T07:18:15;99534.31;;;2.91;100.00
63715;BME280;49858;48.956;9.076;2023-01-28T07:20:43;99541.47;;;2.76;100.00
63715;BME280;49858;48.956;9.076;2023-01-28T07:23:12;99538.69;;;2.87;100.00
63715;BME280;49858;48.956;9.076;2023-01-28T07:25:40;99539.56;;;2.77;100.00
63715;BME280;49858;48.956;9.076;2023-01-28T07:28:08;99538.97;;;3.14;100.00
63715;BME280;49858;48.956;9.076;2023-01-28T07:30:36;99550.59;;;3.20;100.00
63715;BME280;49858;48.956;9.076;2023-01-28T07:33:04;99552.81;;;3.18;100.00
63715;BME280;49858;48.956;9.076;2023-01-28T07:35:32;99552.84;;;2.44;100.00
63715;BME280;49858;48.956;9.076;2023-01-28T07:38:00;99560.59;;;2.66;100.00
63715;BME280;49858;48.956;9.076;2023-01-28T07:40:30;99556.16;;;3.10;100.00
63715;BME280;49858;48.956;9.076;2023-01-28T07:42:57;99552.31;;;3.16;100.00
63715;BME280;49858;48.956;9.076;2023-01-28T07:45:34;99555.13;;;3.35;100.00
63715;BME280;49858;48.956;9.076;2023-01-28T07:48:03;99561.53;;;3.15;100.00
63715;BME280;49858;48.956;9.076;2023-01-28T07:50:34;99564.78;;;3.46;100.00
63715;BME280;49858;48.956;9.076;2023-01-28T07:53:03;99568.41;;;2.78;100.00
63715;BME280;49858;48.956;9.076;2023-01-28T07:55:33;99562.84;;;2.54;100.00
63715;BME280;49858;48.956;9.076;2023-01-28T07:58:03;99574.31;;;3.43;100.00
63715;BME280;49858;48.956;9.076;2023-01-28T08:00:32;99574.69;;;2.73;100.00
63715;BME280;49858;48.956;9.076;2023-01-28T08:03:03;99567.28;;;3.13;100.00
63715;BME280;49858;48.956;9.076;2023-01-28T08:05:37;99567.25;;;3.66;100.00
63715;BME280;49858;48.956;9.076;2023-01-28T08:08:07;99571.66;;;3.09;100.00
63715;BME280;49858;48.956;9.076;2023-01-28T08:10:38;99572.34;;;3.25;100.00
63715;BME280;49858;48.956;9.076;2023-01-28T08:13:08;99577.69;;;3.06;100.00
63715;BME280;49858;48.956;9.076;2023-01-28T08:15:36;99580.91;;;3.37;100.00
63715;BME280;49858;48.956;9.076;2023-01-28T08:18:05;99579.66;;;3.24;100.00
63715;BME280;49858;48.956;9.076;2023-01-28T08:20:35;99577.22;;;3.52;100.00
63715;BME280;49858;48.956;9.076;2023-01-28T08:23:06;99582.94;;;3.50;100.00
63715;BME280;49858;48.956;9.076;2023-01-28T08:25:36;99577.16;;;3.81;100.00
63715;BME280;49858;48.956;9.076;2023-01-28T08:28:05;99580.88;;;3.66;100.00
63715;BME280;49858;48.956;9.076;2023-01-28T08:30:33;99591.00;;;3.61;100.00
63715;BME280;49858;48.956;9.076;2023-01-28T08:33:05;99587.66;;;3.16;100.00
63715;BME280;49858;48.956;9.076;2023-01-28T08:35:33;99589.75;;;3.53;100.00
63715;BME280;49858;48.956;9.076;2023-01-28T08:38:02;99588.09;;;3.52;100.00
63715;BME280;49858;48.956;9.076;2023-01-28T08:40:31;99589.81;;;3.72;100.00
63715;BME280;49858;48.956;9.076;2023-01-28T08:43:00;99587.72;;;3.88;100.00
63715;BME280;49858;48.956;9.076;2023-01-28T08:45:29;99583.81;;;3.94;100.00
63715;BME280;49858;48.956;9.076;2023-01-28T08:47:59;99582.53;;;4.10;100.00
63715;BME280;49858;48.956;9.076;2023-01-28T08:50:29;99590.31;;;3.98;100.00
63715;BME280;49858;48.956;9.076;2023-01-28T08:52:59;99590.31;;;3.98;100.00
63715;BME280;49858;48.956;9.076;2023-01-28T08:55:29;99598.16;;;4.42;100.00
63715;BME280;49858;48.956;9.076;2023-01-28T08:58:02;99594.78;;;3.89;100.00
63715;BME280;49858;48.956;9.076;2023-01-28T09:00:30;99597.22;;;4.14;100.00
63715;BME280;49858;48.956;9.076;2023-01-28T09:02:58;99594.78;;;3.65;100.00
63715;BME280;49858;48.956;9.076;2023-01-28T09:05:27;99599.09;;;3.66;100.00
63715;BME280;49858;48.956;9.076;2023-01-28T09:07:55;99605.59;;;3.70;100.00
63715;BME280;49858;48.956;9.076;2023-01-28T09:10:23;99600.38;;;3.97;100.00
63715;BME280;49858;48.956;9.076;2023-01-28T09:12:50;99614.16;;;3.29;100.00
63715;BME280;49858;48.956;9.076;2023-01-28T09:15:19;99610.13;;;3.79;100.00
63715;BME280;49858;48.956;9.076;2023-01-28T09:17:47;99610.09;;;3.55;100.00
63715;BME280;49858;48.956;9.076;2023-01-28T09:20:16;99619.78;;;3.67;100.00
63715;BME280;49858;48.956;9.076;2023-01-28T09:22:43;99624.88;;;3.73;100.00
63715;BME280;49858;48.956;9.076;2023-01-28T09:25:11;99626.38;;;4.08;100.00
63715;BME280;49858;48.956;9.076;2023-01-28T09:27:39;99621.53;;;3.81;100.00
63715;BME280;49858;48.956;9.076;2023-01-28T09:30:10;99623.44;;;4.05;100.00
63715;BME280;49858;48.956;9.076;2023-01-28T09:32:41;99622.47;;;3.96;100.00
63715;BME280;49858;48.956;9.076;2023-01-28T09:35:09;99633.41;;;3.91;100.00
63715;BME280;49858;48.956;9.076;2023-01-28T09:37:37;99630.16;;;4.13;100.00
63715;BME280;49858;48.956;9.076;2023-01-28T09:40:06;99635.44;;;4.47;100.00
63715;BME280;49858;48.956;9.076;2023-01-28T09:42:47;99640.59;;;4.48;100.00
63715;BME280;49858;48.956;9.076;2023-01-28T09:45:23;99639.88;;;4.61;100.00
63715;BME280;49858;48.956;9.076;2023-01-28T09:47:55;99637.59;;;4.69;100.00
63715;BME280;49858;48.956;9.076;2023-01-28T09:50:30;99644.69;;;4.03;100.00
63715;BME280;49858;48.956;9.076;2023-01-28T09:53:02;99639.81;;;4.00;100.00
63715;BME280;49858;48.956;9.076;2023-01-28T09:55:35;99639.94;;;3.90;100.00
63715;BME280;49858;48.956;9.076;2023-01-28T09:58:05;99647.72;;;4.25;100.00
63715;BME280;49858;48.956;9.076;2023-01-28T10:00:37;99650.75;;;4.43;100.00
63715;BME280;49858;48.956;9.076;2023-01-28T10:03:24;99650.97;;;4.46;100.00
63715;BME280;49858;48.956;9.076;2023-01-28T10:06:00;99653.22;;;4.63;100.00
63715;BME280;49858;48.956;9.076;2023-01-28T10:08:42;99653.97;;;4.26;100.00
63715;BME280;49858;48.956;9.076;2023-01-28T10:11:24;99642.69;;;4.56;100.00
63715;BME280;49858;48.956;9.076;2023-01-28T10:14:01;99643.09;;;4.45;100.00
63715;BME280;49858;48.956;9.076;2023-01-28T10:16:36;99642.75;;;4.27;100.00
63715;BME280;49858;48.956;9.076;2023-01-28T10:19:14;99641.56;;;4.15;100.00
63715;BME280;49858;48.956;9.076;2023-01-28T10:21:46;99633.81;;;4.03;100.00
63715;BME280;49858;48.956;9.076;2023-01-28T10:24:17;99634.94;;;3.49;100.00
63715;BME280;49858;48.956;9.076;2023-01-28T10:26:52;99636.94;;;3.91;100.00
63715;BME280;49858;48.956;9.076;2023-01-28T10:29:22;99624.19;;;3.63;100.00
63715;BME280;49858;48.956;9.076;2023-01-28T10:31:53;99629.38;;;3.59;100.00
63715;BME280;49858;48.956;9.076;2023-01-28T10:34:22;99626.28;;;3.95;100.00
63715;BME280;49858;48.956;9.076;2023-01-28T10:36:50;99618.00;;;3.52;100.00
63715;BME280;49858;48.956;9.076;2023-01-28T10:39:20;99623.59;;;3.90;100.00
63715;BME280;49858;48.956;9.076;2023-01-28T10:41:50;99617.69;;;4.30;100.00
63715;BME280;49858;48.956;9.076;2023-01-28T10:44:30;99627.41;;;4.55;100.00
63715;BME280;49858;48.956;9.076;2023-01-28T10:47:03;99626.09;;;4.91;100.00
63715;BME280;49858;48.956;9.076;2023-01-28T10:49:37;99621.50;;;5.05;100.00
63715;BME280;49858;48.956;9.076;2023-01-28T10:52:12;99629.00;;;4.61;100.00
63715;BME280;49858;48.956;9.076;2023-01-28T10:54:40;99627.03;;;4.24;100.00
63715;BME280;49858;48.956;9.076;2023-01-28T10:57:10;99630.97;;;4.13;100.00
63715;BME280;49858;48.956;9.076;2023-01-28T10:59:39;99631.03;;;4.08;100.00
63715;BME280;49858;48.956;9.076;2023-01-28T11:02:23;99634.50;;;3.90;100.00
63715;BME280;49858;48.956;9.076;2023-01-28T11:05:03;99632.06;;;3.88;100.00
63715;BME280;49858;48.956;9.076;2023-01-28T11:07:33;99631.56;;;3.86;100.00
63715;BME280;49858;48.956;9.076;2023-01-28T11:10:01;99638.13;;;3.80;100.00
63715;BME280;49858;48.956;9.076;2023-01-28T11:12:29;99632.69;;;3.80;100.00
63715;BME280;49858;48.956;9.076;2023-01-28T11:14:59;99632.72;;;3.51;100.00
63715;BME280;49858;48.956;9.076;2023-01-28T11:17:29;99638.91;;;3.56;100.00
63715;BME280;49858;48.956;9.076;2023-01-28T11:20:08;99632.81;;;3.41;100.00
63715;BME280;49858;48.956;9.076;2023-01-28T11:22:38;99639.97;;;3.61;100.00
63715;BME280;49858;48.956;9.076;2023-01-28T11:25:15;99636.22;;;3.80;100.00
63715;BME280;49858;48.956;9.076;2023-01-28T11:27:46;99640.69;;;3.42;100.00
63715;BME280;49858;48.956;9.076;2023-01-28T11:30:21;99635.31;;;3.90;100.00
63715;BME280;49858;48.956;9.076;2023-01-28T11:32:57;99650.03;;;3.89;100.00
63715;BME280;49858;48.956;9.076;2023-01-28T11:35:30;99641.59;;;3.32;100.00
63715;BME280;49858;48.956;9.076;2023-01-28T11:38:00;99650.34;;;3.29;100.00
63715;BME280;49858;48.956;9.076;2023-01-28T11:40:28;99641.19;;;3.15;100.00
63715;BME280;49858;48.956;9.076;2023-01-28T11:42:56;99644.03;;;3.34;100.00
63715;BME280;49858;48.956;9.076;2023-01-28T11:45:32;99642.06;;;3.69;100.00
63715;BME280;49858;48.956;9.076;2023-01-28T11:48:12;99647.34;;;3.84;100.00
63715;BME280;49858;48.956;9.076;2023-01-28T11:50:49;99648.16;;;3.84;100.00
63715;BME280;49858;48.956;9.076;2023-01-28T11:53:39;99649.59;;;3.48;100.00
63715;BME280;49858;48.956;9.076;2023-01-28T11:56:26;99648.34;;;3.40;100.00
63715;BME280;49858;48.956;9.076;2023-01-28T11:59:10;99654.13;;;3.57;100.00
63715;BME280;49858;48.956;9.076;2023-01-28T12:01:52;99649.91;;;3.46;100.00
63715;BME280;49858;48.956;9.076;2023-01-28T12:04:37;99642.59;;;3.42;100.00
63715;BME280;49858;48.956;9.076;2023-01-28T12:07:29;99649.53;;;3.24;100.00
63715;BME280;49858;48.956;9.076;2023-01-28T12:10:03;99650.66;;;3.52;100.00
63715;BME280;49858;48.956;9.076;2023-01-28T12:15:59;99651.78;;;3.17;100.00
63715;BME280;49858;48.956;9.076;2023-01-28T12:18:51;99646.47;;;3.36;100.00
63715;BME280;49858;48.956;9.076;2023-01-28T12:21:32;99643.22;;;3.33;100.00
63715;BME280;49858;48.956;9.076;2023-01-28T12:24:18;99646.72;;;3.39;100.00
63715;BME280;49858;48.956;9.076;2023-01-28T12:26:51;99663.59;;;3.02;100.00
63715;BME280;49858;48.956;9.076;2023-01-28T12:29:27;99656.38;;;3.21;100.00
63715;BME280;49858;48.956;9.076;2023-01-28T12:32:07;99669.81;;;3.07;100.00
63715;BME280;49858;48.956;9.076;2023-01-28T12:34:59;99659.59;;;3.23;100.00
63715;BME280;49858;48.956;9.076;2023-01-28T12:37:43;99663.00;;;3.05;100.00
63715;BME280;49858;48.956;9.076;2023-01-28T12:43:07;99645.47;;;3.26;100.00
63715;BME280;49858;48.956;9.076;2023-01-28T12:45:38;99642.03;;;3.16;100.00
63715;BME280;49858;48.956;9.076;2023-01-28T12:48:10;99635.81;;;2.71;100.00
63715;BME280;49858;48.956;9.076;2023-01-28T12:50:44;99636.72;;;2.95;100.00
63715;BME280;49858;48.956;9.076;2023-01-28T12:53:21;99624.31;;;3.18;100.00
63715;BME280;49858;48.956;9.076;2023-01-28T12:55:54;99626.59;;;3.06;100.00
63715;BME280;49858;48.956;9.076;2023-01-28T12:58:34;99618.47;;;3.01;100.00
63715;BME280;49858;48.956;9.076;2023-01-28T13:01:06;99616.59;;;3.30;100.00
63715;BME280;49858;48.956;9.076;2023-01-28T13:03:39;99618.69;;;3.39;100.00
63715;BME280;49858;48.956;9.076;2023-01-28T13:06:11;99620.75;;;3.23;100.00
63715;BME280;49858;48.956;9.076;2023-01-28T13:08:42;99623.09;;;3.00;100.00
63715;BME280;49858;48.956;9.076;2023-01-28T13:11:14;99618.56;;;3.20;100.00
63715;BME280;49858;48.956;9.076;2023-01-28T13:13:44;99626.00;;;3.09;100.00
63715;BME280;49858;48.956;9.076;2023-01-28T13:16:12;99617.25;;;3.17;100.00
63715;BME280;49858;48.956;9.076;2023-01-28T13:18:43;99628.47;;;3.11;100.00
63715;BME280;49858;48.956;9.076;2023-01-28T13:21:15;99623.47;;;3.52;100.00
63715;BME280;49858;48.956;9.076;2023-01-28T13:23:44;99623.75;;;3.50;100.00
63715;BME280;49858;48.956;9.076;2023-01-28T13:26:40;99625.78;;;3.40;100.00
63715;BME280;49858;48.956;9.076;2023-01-28T13:29:19;99630.59;;;3.14;100.00
63715;BME280;49858;48.956;9.076;2023-01-28T13:31:49;99634.66;;;3.16;100.00
63715;BME280;49858;48.956;9.076;2023-01-28T13:34:34;99625.81;;;3.64;100.00
63715;BME280;49858;48.956;9.076;2023-01-28T13:37:12;99629.34;;;3.35;100.00